createdAt,value
2022-08-23T00:01:01.955Z,14.59
2022-08-23T00:04:07.881Z,14.54
2022-08-23T00:12:07.550Z,14.52
2022-08-23T00:15:11.958Z,14.20
2022-08-23T00:18:16.579Z,14.11
2022-08-23T00:21:19.668Z,14.07
2022-08-23T00:24:23.818Z,13.89
2022-08-23T00:27:28.577Z,13.72
2022-08-23T00:30:31.895Z,13.41
2022-08-23T00:33:36.438Z,13.53
2022-08-23T00:36:39.658Z,13.56
2022-08-23T00:39:43.138Z,13.58
2022-08-23T00:43:10.422Z,13.40
2022-08-23T00:46:38.027Z,13.39
2022-08-23T00:49:43.121Z,13.33
2022-08-23T00:52:53.548Z,13.39
2022-08-23T00:56:00.129Z,13.42
2022-08-23T00:59:04.431Z,13.35
2022-08-23T01:02:07.966Z,13.43
2022-08-23T01:05:13.734Z,13.23
2022-08-23T01:08:17.458Z,13.22
2022-08-23T01:11:26.850Z,13.40
2022-08-23T01:14:35.761Z,13.22
2022-08-23T01:17:43.674Z,12.95
2022-08-23T01:20:52.099Z,12.79
2022-08-23T01:23:59.837Z,13.09
2022-08-23T01:27:02.803Z,12.80
2022-08-23T01:30:09.639Z,12.81
2022-08-23T01:33:12.407Z,12.74
2022-08-23T01:36:17.369Z,12.66
2022-08-23T01:39:22.630Z,12.47
2022-08-23T01:42:25.642Z,12.39
2022-08-23T01:45:29.734Z,12.54
2022-08-23T01:48:32.562Z,12.55
2022-08-23T01:51:35.358Z,12.63
2022-08-23T01:54:40.972Z,12.46
2022-08-23T01:57:48.463Z,12.62
2022-08-23T02:02:11.952Z,12.53
2022-08-23T02:24:25.387Z,12.88
2022-08-23T02:27:32.320Z,12.86
2022-08-23T02:30:35.216Z,12.94
2022-08-23T02:42:50.325Z,12.67
2022-08-23T02:45:54.451Z,12.59
2022-08-23T02:48:57.622Z,12.45
2022-08-23T02:52:01.810Z,12.51
2022-08-23T02:55:05.421Z,12.53
2022-08-23T02:58:09.601Z,12.45
2022-08-23T03:01:16.733Z,12.69
2022-08-23T03:04:19.822Z,12.54
2022-08-23T03:07:22.670Z,12.62
2022-08-23T03:10:25.561Z,12.53
2022-08-23T03:13:35.490Z,12.43
2022-08-23T03:16:38.440Z,12.46
2022-08-23T03:19:41.370Z,12.43
2022-08-23T03:22:49.654Z,12.51
2022-08-23T03:25:58.531Z,12.63
2022-08-23T03:29:05.819Z,12.57
2022-08-23T03:32:20.041Z,12.56
2022-08-23T03:35:22.966Z,12.56
2022-08-23T03:38:26.079Z,12.66
2022-08-23T03:41:30.174Z,12.50
2022-08-23T03:44:34.728Z,12.63
2022-08-23T03:47:38.439Z,12.63
2022-08-23T03:50:41.235Z,12.78
2022-08-23T03:53:45.017Z,12.76
2022-08-23T03:56:54.041Z,12.77
2022-08-23T03:59:59.913Z,12.84
2022-08-23T04:03:04.689Z,12.86
2022-08-23T04:06:12.929Z,12.82
2022-08-23T04:09:17.068Z,12.85
2022-08-23T04:12:22.119Z,12.75
2022-08-23T04:15:26.722Z,12.74
2022-08-23T04:18:30.366Z,12.73
2022-08-23T04:22:08.159Z,12.65
2022-08-23T04:25:33.246Z,12.70
2022-08-23T04:28:57.021Z,12.80
2022-08-23T04:32:01.326Z,12.83
2022-08-23T04:35:05.048Z,12.92
2022-08-23T04:38:24.256Z,12.87
2022-08-23T04:41:47.770Z,12.92
2022-08-23T04:44:52.758Z,12.80
2022-08-23T04:48:03.198Z,12.96
2022-08-23T04:51:10.922Z,13.00
2022-08-23T04:54:19.033Z,13.10
2022-08-23T04:57:54.511Z,13.15
2022-08-23T05:01:04.376Z,13.25
2022-08-23T05:04:09.126Z,13.34
2022-08-23T05:07:17.843Z,13.24
2022-08-23T05:10:21.790Z,13.30
2022-08-23T05:13:31.785Z,13.34
2022-08-23T05:16:40.076Z,13.38
2022-08-23T05:19:47.377Z,13.46
2022-08-23T05:22:51.437Z,13.46
2022-08-23T05:26:15.353Z,13.38
2022-08-23T05:29:18.677Z,13.50
2022-08-23T05:32:32.813Z,13.53
2022-08-23T05:35:38.526Z,13.47
2022-08-23T05:38:43.784Z,13.58
2022-08-23T05:41:48.115Z,13.57
2022-08-23T05:44:51.175Z,13.63
2022-08-23T05:47:55.935Z,13.76
2022-08-23T05:51:17.111Z,13.78
2022-08-23T05:54:20.363Z,13.85
2022-08-23T05:57:35.664Z,13.95
2022-08-23T06:00:40.707Z,13.93
2022-08-23T06:03:45.669Z,13.93
2022-08-23T06:06:50.019Z,13.97
2022-08-23T06:10:03.002Z,13.88
2022-08-23T06:13:07.389Z,14.01
2022-08-23T06:16:14.694Z,14.03
2022-08-23T06:19:18.996Z,14.08
2022-08-23T06:22:25.781Z,14.09
2022-08-23T06:25:29.014Z,14.19
2022-08-23T06:28:50.297Z,14.22
2022-08-23T06:31:54.696Z,14.17
2022-08-23T06:35:29.937Z,14.26
2022-08-23T06:38:34.488Z,14.32
2022-08-23T06:41:48.570Z,14.38
2022-08-23T06:45:02.229Z,14.33
2022-08-23T06:48:18.764Z,14.28
2022-08-23T06:51:24.290Z,14.24
2022-08-23T06:54:48.809Z,14.35
2022-08-23T06:58:16.068Z,14.34
2022-08-23T07:01:56.134Z,14.36
2022-08-23T07:05:14.997Z,14.41
2022-08-23T07:08:28.185Z,14.41
2022-08-23T07:11:33.023Z,14.46
2022-08-23T07:14:36.420Z,14.54
2022-08-23T07:17:39.771Z,14.62
2022-08-23T07:20:42.581Z,14.66
2022-08-23T07:23:46.604Z,14.64
2022-08-23T07:26:53.009Z,14.69
2022-08-23T07:29:55.997Z,14.77
2022-08-23T07:32:58.782Z,14.81
2022-08-23T07:36:07.199Z,14.85
2022-08-23T07:39:12.033Z,14.84
2022-08-23T07:42:23.891Z,14.86
2022-08-23T07:45:29.856Z,14.93
2022-08-23T07:48:53.499Z,14.92
2022-08-23T07:52:03.339Z,15.00
2022-08-23T07:55:07.086Z,14.91
2022-08-23T07:58:40.737Z,15.03
2022-08-23T08:01:56.028Z,15.07
2022-08-23T08:05:00.806Z,15.10
2022-08-23T08:08:05.719Z,15.22
2022-08-23T08:11:08.654Z,15.30
2022-08-23T08:14:13.715Z,15.39
2022-08-23T08:17:27.521Z,15.47
2022-08-23T08:20:48.874Z,15.51
2022-08-23T08:24:13.009Z,15.59
2022-08-23T08:27:26.779Z,15.63
2022-08-23T08:30:30.966Z,15.78
2022-08-23T08:33:34.279Z,15.88
2022-08-23T08:36:40.930Z,15.97
2022-08-23T08:39:48.913Z,16.13
2022-08-23T08:43:10.871Z,16.26
2022-08-23T08:46:23.487Z,16.60
2022-08-23T08:49:36.469Z,16.84
2022-08-23T08:52:44.197Z,16.82
2022-08-23T08:55:58.102Z,16.96
2022-08-23T08:59:06.521Z,16.90
2022-08-23T09:02:32.041Z,17.11
2022-08-23T09:05:40.583Z,17.12
2022-08-23T09:08:56.351Z,17.36
2022-08-23T09:12:06.679Z,17.68
2022-08-23T09:15:22.593Z,17.64
2022-08-23T09:18:35.310Z,17.76
2022-08-23T09:21:45.472Z,17.83
2022-08-23T09:24:48.277Z,17.82
2022-08-23T09:27:58.755Z,17.87
2022-08-23T09:31:02.225Z,18.04
2022-08-23T09:34:09.119Z,18.11
2022-08-23T09:37:25.151Z,18.24
2022-08-23T09:40:34.762Z,18.43
2022-08-23T09:43:48.228Z,18.50
2022-08-23T09:47:06.882Z,18.70
2022-08-23T09:50:30.319Z,18.61
2022-08-23T09:53:33.653Z,18.42
2022-08-23T09:56:45.936Z,18.41
2022-08-23T09:59:51.803Z,18.42
2022-08-23T10:03:23.441Z,18.54
2022-08-23T10:06:34.220Z,18.54
2022-08-23T10:09:40.211Z,18.55
2022-08-23T10:12:44.124Z,18.59
2022-08-23T10:15:57.824Z,18.74
2022-08-23T10:19:08.493Z,18.80
2022-08-23T10:22:19.490Z,18.77
2022-08-23T10:25:46.257Z,18.72
2022-08-23T10:29:17.043Z,18.78
2022-08-23T10:32:25.260Z,18.77
2022-08-23T10:35:37.936Z,18.82
2022-08-23T10:38:47.258Z,18.86
2022-08-23T10:41:59.791Z,18.92
2022-08-23T10:45:11.902Z,18.86
2022-08-23T10:48:27.126Z,18.87
2022-08-23T10:51:33.964Z,18.90
2022-08-23T10:54:49.601Z,19.00
2022-08-23T10:57:57.352Z,18.98
2022-08-23T11:01:01.698Z,19.11
2022-08-23T11:04:08.250Z,19.21
2022-08-23T11:07:31.167Z,19.22
2022-08-23T11:10:53.689Z,19.21
2022-08-23T11:14:04.341Z,19.26
2022-08-23T11:17:11.831Z,19.39
2022-08-23T11:20:54.699Z,19.56
2022-08-23T11:24:35.155Z,19.80
2022-08-23T11:27:44.177Z,19.84
2022-08-23T11:30:52.495Z,19.84
2022-08-23T11:34:06.723Z,19.92
2022-08-23T11:37:29.834Z,19.84
2022-08-23T11:40:55.833Z,19.75
2022-08-23T11:44:27.739Z,19.77
2022-08-23T11:47:41.206Z,19.81
2022-08-23T11:51:03.870Z,19.84
2022-08-23T11:54:29.621Z,19.88
2022-08-23T11:57:49.351Z,19.84
2022-08-23T12:01:07.602Z,19.89
2022-08-23T12:04:15.196Z,19.92
2022-08-23T12:07:44.667Z,19.86
2022-08-23T12:11:05.195Z,19.88
2022-08-23T12:14:37.414Z,19.99
2022-08-23T12:18:09.428Z,19.86
2022-08-23T12:21:20.310Z,19.88
2022-08-23T12:24:27.093Z,19.86
2022-08-23T12:27:34.973Z,19.89
2022-08-23T12:30:50.527Z,19.80
2022-08-23T12:34:10.035Z,19.85
2022-08-23T12:37:23.574Z,19.98
2022-08-23T12:40:33.536Z,19.91
2022-08-23T12:43:36.824Z,20.11
2022-08-23T12:46:43.366Z,20.08
2022-08-23T12:49:58.977Z,20.24
2022-08-23T12:53:04.399Z,20.30
2022-08-23T12:56:10.217Z,20.36
2022-08-23T12:59:34.646Z,20.36
2022-08-23T13:02:38.882Z,20.50
2022-08-23T13:05:46.395Z,20.59
2022-08-23T13:08:55.624Z,20.54
2022-08-23T13:11:59.160Z,20.56
2022-08-23T13:15:05.039Z,20.65
2022-08-23T13:18:08.044Z,20.76
2022-08-23T13:21:20.252Z,20.71
2022-08-23T13:24:38.440Z,20.78
2022-08-23T13:27:54.248Z,20.82
2022-08-23T13:31:03.336Z,20.85
2022-08-23T13:34:06.302Z,20.95
2022-08-23T13:37:26.429Z,20.78
2022-08-23T13:40:31.584Z,20.83
2022-08-23T13:43:39.894Z,20.76
2022-08-23T13:46:46.576Z,20.75
2022-08-23T13:49:49.638Z,20.82
2022-08-23T13:53:14.053Z,20.74
2022-08-23T13:56:17.236Z,20.79
2022-08-23T13:59:26.933Z,20.68
2022-08-23T14:02:34.178Z,20.72
2022-08-23T14:05:36.949Z,20.74
2022-08-23T14:08:41.143Z,20.74
2022-08-23T14:11:44.067Z,20.79
2022-08-23T14:14:47.576Z,20.83
2022-08-23T14:17:54.648Z,20.84
2022-08-23T14:20:57.483Z,20.84
2022-08-23T14:24:01.711Z,20.84
2022-08-23T14:27:05.207Z,20.99
2022-08-23T14:30:11.559Z,20.95
2022-08-23T14:33:14.426Z,20.98
2022-08-23T14:36:17.638Z,21.07
2022-08-23T14:39:22.627Z,21.08
2022-08-23T14:42:25.634Z,21.11
2022-08-23T14:45:28.545Z,20.95
2022-08-23T14:48:32.549Z,20.97
2022-08-23T14:51:39.085Z,20.95
2022-08-23T14:54:47.599Z,20.97
2022-08-23T14:57:51.712Z,21.01
2022-08-23T15:00:54.682Z,20.98
2022-08-23T15:04:01.647Z,20.94
2022-08-23T15:07:20.965Z,20.99
2022-08-23T15:13:55.375Z,21.26
2022-08-23T15:17:00.029Z,21.24
2022-08-23T15:20:03.371Z,21.23
2022-08-23T15:23:07.891Z,21.26
2022-08-23T15:26:13.402Z,21.23
2022-08-23T15:29:19.034Z,21.16
2022-08-23T15:32:23.321Z,21.10
2022-08-23T15:35:27.682Z,21.11
2022-08-23T15:38:32.080Z,21.20
2022-08-23T15:41:36.990Z,21.19
2022-08-23T15:44:39.874Z,21.26
2022-08-23T15:47:48.470Z,21.25
2022-08-23T15:50:52.329Z,21.27
2022-08-23T15:53:57.714Z,21.15
2022-08-23T15:57:02.076Z,21.11
2022-08-23T16:00:07.731Z,21.14
2022-08-23T16:03:19.328Z,21.20
2022-08-23T16:06:23.913Z,21.27
2022-08-23T16:09:28.103Z,21.33
2022-08-23T16:12:32.217Z,21.32
2022-08-23T16:15:35.074Z,21.23
2022-08-23T16:18:39.254Z,21.29
2022-08-23T16:21:42.105Z,21.24
2022-08-23T16:24:45.035Z,21.27
2022-08-23T16:27:49.207Z,21.30
2022-08-23T16:30:52.029Z,21.30
2022-08-23T16:33:54.807Z,21.30
2022-08-23T16:37:00.289Z,21.33
2022-08-23T16:40:03.658Z,21.33
2022-08-23T16:43:07.863Z,21.28
2022-08-23T16:46:11.616Z,21.32
2022-08-23T16:49:17.405Z,21.24
2022-08-23T16:52:20.642Z,21.24
2022-08-23T16:55:33.844Z,21.21
2022-08-23T16:58:38.649Z,21.21
2022-08-23T17:01:47.054Z,21.17
2022-08-23T17:04:52.647Z,21.19
2022-08-23T17:07:55.837Z,21.17
2022-08-23T17:11:03.052Z,21.14
2022-08-23T17:14:07.782Z,21.16
2022-08-23T17:17:10.562Z,21.16
2022-08-23T17:20:16.035Z,21.04
2022-08-23T17:23:19.325Z,20.85
2022-08-23T17:26:22.299Z,21.01
2022-08-23T17:29:27.598Z,21.02
2022-08-23T17:32:34.112Z,21.04
2022-08-23T17:35:38.236Z,20.88
2022-08-23T17:38:41.053Z,20.99
2022-08-23T17:41:45.456Z,20.98
2022-08-23T17:44:49.937Z,20.97
2022-08-23T17:47:52.737Z,20.88
2022-08-23T17:50:55.978Z,20.89
2022-08-23T17:53:58.814Z,20.70
2022-08-23T17:57:01.942Z,20.41
2022-08-23T18:00:10.489Z,20.15
2022-08-23T18:03:13.250Z,19.90
2022-08-23T18:06:17.467Z,20.16
2022-08-23T18:09:20.431Z,20.18
2022-08-23T18:12:26.435Z,20.16
2022-08-23T18:15:43.661Z,20.23
2022-08-23T18:18:48.967Z,19.88
2022-08-23T18:21:51.956Z,19.83
2022-08-23T18:24:57.818Z,19.95
2022-08-23T18:28:06.248Z,19.83
2022-08-23T18:31:17.011Z,19.64
2022-08-23T18:34:20.510Z,19.79
2022-08-23T18:37:23.289Z,19.72
2022-08-23T18:40:27.342Z,19.73
2022-08-23T18:43:37.087Z,19.70
2022-08-23T18:46:46.718Z,19.45
2022-08-23T18:49:49.682Z,19.54
2022-08-23T18:52:52.480Z,19.44
2022-08-23T18:55:56.524Z,19.38
2022-08-23T18:59:09.308Z,19.14
2022-08-23T19:02:15.268Z,18.86
2022-08-23T19:05:18.400Z,18.96
2022-08-23T19:08:21.869Z,18.58
2022-08-23T19:11:24.883Z,18.73
2022-08-23T19:14:28.613Z,18.62
2022-08-23T19:17:32.752Z,18.61
2022-08-23T19:20:37.259Z,18.36
2022-08-23T19:23:46.013Z,18.10
2022-08-23T19:26:49.478Z,18.02
2022-08-23T19:29:55.643Z,17.92
2022-08-23T19:33:00.528Z,17.96
2022-08-23T19:36:04.369Z,17.87
2022-08-23T19:39:08.654Z,17.85
2022-08-23T19:42:11.966Z,17.97
2022-08-23T19:45:15.390Z,18.01
2022-08-23T19:48:20.229Z,17.65
2022-08-23T19:51:24.221Z,17.44
2022-08-23T19:54:29.501Z,17.44
2022-08-23T19:57:36.864Z,17.57
2022-08-23T20:00:39.773Z,17.55
2022-08-23T20:03:44.980Z,17.43
2022-08-23T20:06:48.745Z,17.30
2022-08-23T20:09:51.587Z,17.18
2022-08-23T20:12:54.746Z,17.10
2022-08-23T20:15:57.907Z,17.05
2022-08-23T20:19:02.276Z,17.25
2022-08-23T20:22:23.413Z,16.88
2022-08-23T20:25:33.655Z,16.68
2022-08-23T20:28:40.049Z,16.76
2022-08-23T20:32:06.070Z,16.83
2022-08-23T20:35:12.537Z,16.75
2022-08-23T20:38:33.274Z,16.83
2022-08-23T20:41:40.402Z,16.74
2022-08-23T20:44:43.127Z,16.70
2022-08-23T20:47:47.217Z,16.67
2022-08-23T20:50:51.304Z,16.50
2022-08-23T20:54:16.309Z,16.42
2022-08-23T20:57:22.602Z,16.47
2022-08-23T21:00:26.550Z,16.47
2022-08-23T21:03:30.027Z,16.52
2022-08-23T21:06:38.771Z,16.60
2022-08-23T21:09:41.760Z,16.58
2022-08-23T21:12:44.587Z,16.48
2022-08-23T21:15:47.347Z,16.63
2022-08-23T21:18:50.654Z,16.70
2022-08-23T21:21:58.352Z,16.72
2022-08-23T21:25:02.085Z,16.78
2022-08-23T21:28:04.881Z,16.83
2022-08-23T21:31:09.102Z,16.91
2022-08-23T21:34:11.933Z,16.96
2022-08-23T21:37:16.163Z,17.05
2022-08-23T21:40:19.165Z,17.03
2022-08-23T21:43:21.986Z,17.02
2022-08-23T21:46:24.892Z,16.92
2022-08-23T21:49:27.721Z,16.96
2022-08-23T21:52:33.341Z,17.00
2022-08-23T21:55:37.237Z,17.02
2022-08-23T21:58:42.572Z,17.03
2022-08-23T22:01:45.899Z,17.02
2022-08-23T22:04:48.742Z,16.99
2022-08-23T22:07:53.047Z,17.01
2022-08-23T22:10:57.908Z,17.01
2022-08-23T22:14:01.306Z,17.04
2022-08-23T22:17:04.652Z,17.02
2022-08-23T22:20:09.617Z,16.95
2022-08-23T22:23:13.848Z,16.96
2022-08-23T22:26:16.724Z,16.92
2022-08-23T22:29:19.478Z,16.92
2022-08-23T22:32:22.937Z,16.95
2022-08-23T22:35:29.002Z,16.83
2022-08-23T22:38:33.166Z,16.93
2022-08-23T22:41:36.946Z,16.82
2022-08-23T22:44:40.186Z,16.80
2022-08-23T22:47:43.097Z,16.79
2022-08-23T22:50:46.332Z,16.84
2022-08-23T22:53:53.021Z,16.82
2022-08-23T22:56:55.844Z,16.87
2022-08-23T22:59:58.878Z,16.87
2022-08-23T23:03:01.604Z,16.86
2022-08-23T23:06:06.273Z,16.78
2022-08-23T23:09:12.975Z,16.69
2022-08-23T23:12:15.872Z,16.65
2022-08-23T23:15:18.653Z,16.64
2022-08-23T23:18:23.303Z,16.59
2022-08-23T23:21:25.475Z,16.62
2022-08-23T23:24:31.784Z,16.57
2022-08-23T23:27:34.680Z,16.55
2022-08-23T23:30:38.118Z,16.60
2022-08-23T23:33:45.684Z,16.62
2022-08-23T23:36:49.283Z,16.47
2022-08-23T23:39:57.042Z,16.58
2022-08-23T23:43:01.226Z,16.53
2022-08-23T23:46:06.687Z,16.39
2022-08-23T23:49:09.540Z,16.49
2022-08-23T23:52:12.356Z,16.33
2022-08-23T23:55:18.679Z,16.32
2022-08-23T23:58:21.657Z,16.46
